Time;durP1;ratioP1;P1;durP2;ratioP2;P2;SDS_P1;SDS_P2;PMS_P1;PMS_P2;Temp;Humidity;BMP_temperature;BMP_pressure;BME280_temperature;BME280_humidity;BME280_pressure;Samples;Min_cycle;Max_cycle;Signal;HPM_P1;HPM_P2
2024/04/05 00:00:40;;;;;;;0.30;0.20;;;;;;;12.90;100.00;100015.81;4994006;28;20242;-46
2024/04/05 00:03:07;;;;;;;0.30;0.20;;;;;;;12.93;100.00;100007.66;5003464;28;20249;-47
2024/04/05 00:05:33;;;;;;;0.30;0.20;;;;;;;12.92;100.00;100016.59;5011238;28;20244;-46
2024/04/05 00:07:59;;;;;;;0.30;0.20;;;;;;;13.07;100.00;100015.06;5011337;28;20467;-46
2024/04/05 00:10:24;;;;;;;0.30;0.20;;;;;;;13.08;100.00;100015.00;5011421;28;20464;-46
2024/04/05 00:12:50;;;;;;;0.30;0.20;;;;;;;12.94;100.00;100017.41;5011013;28;20699;-46
2024/04/05 00:15:15;;;;;;;0.30;0.20;;;;;;;12.96;100.00;100016.41;5011258;28;20776;-46
2024/04/05 00:17:41;;;;;;;0.30;0.20;;;;;;;12.94;100.00;100012.06;5011026;28;20217;-46
2024/04/05 00:20:07;;;;;;;0.30;0.20;;;;;;;12.92;100.00;100009.47;5011376;28;20226;-46
2024/04/05 00:22:32;;;;;;;0.30;0.20;;;;;;;13.01;100.00;100008.19;5010723;28;20595;-46
2024/04/05 00:24:57;;;;;;;0.30;0.20;;;;;;;12.96;100.00;100008.41;5011300;28;20356;-46
2024/04/05 00:27:23;;;;;;;0.30;0.20;;;;;;;12.88;100.00;100006.97;5011097;28;20224;-46
2024/04/05 00:29:49;;;;;;;0.30;0.20;;;;;;;13.01;100.00;100003.72;5011206;28;20710;-47
2024/04/05 00:32:15;;;;;;;0.30;0.20;;;;;;;12.96;100.00;100005.72;5011021;28;20291;-47
2024/04/05 00:34:41;;;;;;;0.30;0.20;;;;;;;12.99;100.00;100004.72;5000868;28;20925;-46
2024/04/05 00:37:07;;;;;;;0.30;0.20;;;;;;;12.97;100.00;99996.78;5010996;28;20431;-46
2024/04/05 00:39:32;;;;;;;0.30;0.20;;;;;;;12.94;100.00;99991.59;4978143;28;20292;-47
2024/04/05 00:41:58;;;;;;;0.30;0.20;;;;;;;12.87;100.00;99994.56;5004999;28;20324;-46
2024/04/05 00:44:24;;;;;;;0.30;0.20;;;;;;;12.96;100.00;99989.72;5010857;28;20241;-46
2024/04/05 00:46:50;;;;;;;0.30;0.20;;;;;;;13.19;100.00;99982.56;5011034;28;20463;-47
2024/04/05 00:49:16;;;;;;;0.30;0.20;;;;;;;13.19;100.00;99988.75;5010758;28;20667;-46
2024/04/05 00:51:42;;;;;;;0.30;0.20;;;;;;;13.22;100.00;99991.28;5010838;28;20491;-46
2024/04/05 00:54:08;;;;;;;0.30;0.20;;;;;;;13.18;100.00;99986.13;5011021;28;20472;-46
2024/04/05 00:56:35;;;;;;;3.13;2.90;;;;;;;13.10;100.00;99982.91;5012237;28;20217;-46
2024/04/05 00:59:00;;;;;;;0.30;0.20;;;;;;;13.12;100.00;99984.56;5010532;28;20441;-45
2024/04/05 01:01:27;;;;;;;0.30;0.20;;;;;;;12.99;100.00;99967.38;4996538;28;20547;-47
2024/04/05 01:03:53;;;;;;;0.30;0.20;;;;;;;12.98;100.00;99977.16;5010901;28;20245;-45
2024/04/05 01:06:18;;;;;;;0.30;0.20;;;;;;;12.85;100.00;99969.75;4998333;28;20446;-46
2024/04/05 01:08:44;;;;;;;0.30;0.20;;;;;;;12.81;100.00;99971.72;5014676;28;20435;-46
2024/04/05 01:11:09;;;;;;;0.30;0.20;;;;;;;12.70;100.00;99982.81;5013952;28;20244;-46
2024/04/05 01:13:35;;;;;;;0.30;0.20;;;;;;;12.70;100.00;99984.63;5014294;28;20227;-47
2024/04/05 01:16:04;;;;;;;0.30;0.20;;;;;;;12.76;100.00;99981.72;5013824;28;20358;-46
2024/04/05 01:18:30;;;;;;;0.30;0.20;;;;;;;12.81;100.00;99981.50;5014207;28;20218;-45
2024/04/05 01:20:56;;;;;;;0.30;0.20;;;;;;;12.72;100.00;99993.44;5013693;28;20917;-46
2024/04/05 01:23:24;;;;;;;0.37;0.20;;;;;;;12.77;100.00;99985.25;5014064;28;20279;-47
2024/04/05 01:25:51;;;;;;;0.30;0.20;;;;;;;12.85;100.00;99980.44;5013476;28;21028;-46
2024/04/05 01:28:16;;;;;;;0.30;0.20;;;;;;;12.62;100.00;99986.75;5014056;28;20439;-46
2024/04/05 01:30:42;;;;;;;0.30;0.20;;;;;;;12.83;100.00;99990.31;5013826;28;20473;-46
2024/04/05 01:33:07;;;;;;;0.30;0.20;;;;;;;12.78;100.00;99995.84;5008544;28;20293;-46
2024/04/05 01:35:33;;;;;;;0.30;0.20;;;;;;;12.79;100.00;99994.91;5008807;28;20276;-47
2024/04/05 01:37:59;;;;;;;0.30;0.20;;;;;;;12.70;100.00;99985.50;5009558;28;20226;-46
2024/04/05 01:40:26;;;;;;;0.30;0.20;;;;;;;12.63;100.00;99989.38;4995640;28;20226;-46
2024/04/05 01:42:52;;;;;;;0.30;0.20;;;;;;;12.42;100.00;99995.56;5013474;28;20611;-46
2024/04/05 01:45:18;;;;;;;0.30;0.20;;;;;;;12.59;100.00;99989.53;5013505;28;20461;-47
2024/04/05 01:47:43;;;;;;;0.30;0.20;;;;;;;12.66;100.00;99980.38;5013380;28;20496;-46
2024/04/05 01:50:09;;;;;;;0.30;0.20;;;;;;;12.55;100.00;99983.47;4997228;28;20221;-46
2024/04/05 01:52:35;;;;;;;0.30;0.20;;;;;;;12.46;100.00;99982.03;5013353;28;20703;-46
2024/04/05 01:55:01;;;;;;;0.30;0.20;;;;;;;12.52;100.00;99991.59;5013486;28;20534;-46
2024/04/05 01:57:26;;;;;;;0.30;0.20;;;;;;;12.48;100.00;99992.66;5013565;28;20221;-46
2024/04/05 01:59:54;;;;;;;0.30;0.20;;;;;;;12.20;100.00;100000.91;5002290;28;20680;-46
2024/04/05 02:02:20;;;;;;;0.30;0.20;;;;;;;12.22;100.00;99996.38;5002779;28;20229;-46
2024/04/05 02:04:46;;;;;;;0.30;0.20;;;;;;;12.13;100.00;99994.94;5009546;28;20503;-46
2024/04/05 02:07:12;;;;;;;0.30;0.20;;;;;;;11.98;100.00;99992.03;5012636;28;20431;-46
2024/04/05 02:09:37;;;;;;;0.30;0.20;;;;;;;12.02;100.00;99991.84;5012330;28;20259;-46
2024/04/05 02:12:03;;;;;;;0.30;0.20;;;;;;;11.99;100.00;99985.75;5012917;28;20237;-46
2024/04/05 02:14:29;;;;;;;0.30;0.20;;;;;;;11.90;100.00;99994.97;5013012;28;20272;-47
2024/04/05 02:16:56;;;;;;;0.30;0.20;;;;;;;12.02;100.00;99993.63;5013063;28;20464;-46
2024/04/05 02:19:22;;;;;;;0.30;0.20;;;;;;;11.93;100.00;99989.56;5013063;28;20221;-46
2024/04/05 02:21:48;;;;;;;0.30;0.20;;;;;;;11.91;100.00;99988.72;5012941;28;20488;-46
2024/04/05 02:24:13;;;;;;;0.30;0.20;;;;;;;11.76;100.00;99987.47;5012526;28;20498;-45
2024/04/05 02:26:39;;;;;;;0.30;0.20;;;;;;;11.72;100.00;99990.31;5012912;28;20225;-47
2024/04/05 02:29:05;;;;;;;0.30;0.20;;;;;;;11.66;100.00;99996.78;5012758;28;20272;-46
2024/04/05 02:31:30;;;;;;;0.30;0.20;;;;;;;11.36;100.00;100005.88;5012865;28;20248;-47
2024/04/05 02:33:56;;;;;;;0.30;0.20;;;;;;;11.40;100.00;100005.72;5002870;28;20215;-45
2024/04/05 02:36:22;;;;;;;0.30;0.20;;;;;;;11.47;100.00;100001.88;5012530;28;20221;-46
2024/04/05 02:38:48;;;;;;;0.30;0.20;;;;;;;11.14;100.00;100013.75;5001835;28;20241;-46
2024/04/05 02:41:13;;;;;;;0.60;0.60;;;;;;;11.47;100.00;100001.03;5001858;28;20221;-46
2024/04/05 02:43:39;;;;;;;0.30;0.20;;;;;;;11.39;100.00;100014.63;5012905;28;20500;-45
2024/04/05 02:46:05;;;;;;;0.30;0.20;;;;;;;11.51;100.00;100007.97;5012957;28;20225;-46
2024/04/05 02:48:31;;;;;;;0.30;0.20;;;;;;;11.61;100.00;100006.69;5012366;28;20272;-46
2024/04/05 02:50:56;;;;;;;0.30;0.20;;;;;;;11.78;100.00;100008.72;5012688;28;20456;-46
2024/04/05 02:53:24;;;;;;;0.30;0.20;;;;;;;11.95;100.00;100011.66;5012398;28;20225;-47
2024/04/05 02:55:49;;;;;;;0.30;0.20;;;;;;;12.09;100.00;100009.31;5012396;28;20225;-46
2024/04/05 02:58:15;;;;;;;0.30;0.20;;;;;;;12.16;100.00;100008.13;5012396;28;20442;-46
2024/04/05 03:00:41;;;;;;;0.30;0.20;;;;;;;12.08;100.00;100007.59;4994689;28;20657;-46
2024/04/05 03:03:06;;;;;;;0.30;0.20;;;;;;;11.97;100.00;100006.28;5004298;28;20238;-47
2024/04/05 03:05:32;;;;;;;0.30;0.20;;;;;;;12.01;100.00;100008.75;5012181;28;20679;-46
2024/04/05 03:07:57;;;;;;;0.30;0.20;;;;;;;12.03;100.00;100006.88;5011873;28;20240;-46
2024/04/05 03:10:23;;;;;;;0.30;0.20;;;;;;;12.03;100.00;100011.34;5012510;28;20225;-46
2024/04/05 03:12:52;;;;;;;0.30;0.20;;;;;;;12.10;100.00;100003.06;5011980;28;20248;-46
2024/04/05 03:15:17;;;;;;;0.30;0.20;;;;;;;12.29;100.00;100000.53;5012083;28;20218;-46
2024/04/05 03:17:43;;;;;;;0.30;0.20;;;;;;;12.51;100.00;99994.34;5011634;28;20464;-47
2024/04/05 03:20:12;;;;;;;0.30;0.20;;;;;;;12.04;100.00;99995.28;5011888;28;20300;-45
2024/04/05 03:22:41;;;;;;;0.30;0.20;;;;;;;12.07;100.00;99995.22;5011602;28;20291;-46
2024/04/05 03:25:08;;;;;;;0.30;0.20;;;;;;;12.07;100.00;99999.66;5011828;28;20456;-46
2024/04/05 03:27:34;;;;;;;0.30;0.20;;;;;;;12.09;100.00;100001.34;5011566;28;20527;-46
2024/04/05 03:30:00;;;;;;;0.30;0.20;;;;;;;12.15;100.00;99997.53;5012021;28;20477;-46
2024/04/05 03:32:25;;;;;;;0.30;0.20;;;;;;;12.16;100.00;100007.28;5011805;28;20459;-46
2024/04/05 03:34:51;;;;;;;0.30;0.20;;;;;;;12.14;100.00;100011.81;5000883;28;20248;-46
2024/04/05 03:37:16;;;;;;;0.30;0.20;;;;;;;12.18;100.00;100004.53;5011530;28;20232;-46
2024/04/05 03:39:42;;;;;;;0.30;0.20;;;;;;;12.15;100.00;100009.06;4993846;28;20222;-46
2024/04/05 03:42:08;;;;;;;0.30;0.20;;;;;;;12.13;100.00;100007.41;5007082;28;20252;-46
2024/04/05 03:44:34;;;;;;;0.30;0.20;;;;;;;11.96;100.00;100007.19;5011528;28;20467;-47
2024/04/05 03:47:00;;;;;;;0.30;0.20;;;;;;;12.11;100.00;99994.16;5011198;28;20461;-46
2024/04/05 03:49:28;;;;;;;0.30;0.20;;;;;;;12.10;100.00;99996.88;5011640;28;20222;-47
2024/04/05 03:51:56;;;;;;;0.30;0.20;;;;;;;12.14;100.00;99995.81;5011275;28;20248;-46
2024/04/05 03:54:22;;;;;;;0.30;0.20;;;;;;;12.00;100.00;99988.38;5011498;28;20954;-46
2024/04/05 03:56:48;;;;;;;0.30;0.20;;;;;;;11.79;100.00;99982.09;5011336;28;20504;-46
2024/04/05 03:59:13;;;;;;;0.30;0.20;;;;;;;11.82;100.00;99983.75;5005559;28;20899;-46
2024/04/05 04:01:39;;;;;;;0.30;0.20;;;;;;;11.72;100.00;99987.66;4995036;28;20233;-46
2024/04/05 04:04:05;;;;;;;0.30;0.20;;;;;;;11.79;100.00;99992.75;5007846;28;20233;-46
2024/04/05 04:06:31;;;;;;;0.30;0.20;;;;;;;11.72;100.00;99998.31;5010983;28;20500;-46
2024/04/05 04:08:56;;;;;;;0.30;0.20;;;;;;;11.82;100.00;99999.75;5011520;28;20217;-46
2024/04/05 04:11:22;;;;;;;0.30;0.20;;;;;;;11.85;100.00;99994.28;5011186;28;20617;-46
2024/04/05 04:13:48;;;;;;;0.30;0.20;;;;;;;11.94;100.00;100001.94;5011468;28;20224;-47
2024/04/05 04:16:16;;;;;;;0.30;0.20;;;;;;;11.84;100.00;100001.41;4995001;28;20221;-45
2024/04/05 04:18:42;;;;;;;0.30;0.20;;;;;;;12.00;100.00;100001.69;5011229;28;20468;-46
2024/04/05 04:21:07;;;;;;;0.30;0.20;;;;;;;11.85;100.00;99997.81;5011290;28;20821;-46
2024/04/05 04:23:33;;;;;;;0.30;0.20;;;;;;;11.92;100.00;99998.44;5011157;28;20492;-46
2024/04/05 04:26:00;;;;;;;0.30;0.20;;;;;;;11.72;100.00;99998.31;5011323;28;20280;-46
2024/04/05 04:28:27;;;;;;;0.30;0.20;;;;;;;11.74;100.00;100007.09;5011500;28;20225;-46
2024/04/05 04:30:54;;;;;;;10.10;3.40;;;;;;;11.89;100.00;100019.88;5012171;28;20503;-46
2024/04/05 04:33:19;;;;;;;0.30;0.20;;;;;;;11.96;100.00;100017.84;5008127;28;20458;-46
2024/04/05 04:35:45;;;;;;;0.30;0.20;;;;;;;11.90;100.00;100013.63;4996035;28;21006;-46
2024/04/05 04:38:11;;;;;;;0.30;0.20;;;;;;;11.98;100.00;100013.34;5009275;28;20668;-46
2024/04/05 04:40:37;;;;;;;0.30;0.20;;;;;;;11.81;100.00;100016.66;4998777;28;20690;-46
2024/04/05 04:43:04;;;;;;;0.30;0.20;;;;;;;11.78;100.00;100024.69;5014786;28;20561;-46
2024/04/05 04:45:30;;;;;;;0.30;0.20;;;;;;;11.69;100.00;100025.06;5014836;28;20460;-46
2024/04/05 04:47:55;;;;;;;0.30;0.20;;;;;;;11.82;100.00;100018.38;5014818;28;20465;-46
2024/04/05 04:50:21;;;;;;;0.30;0.20;;;;;;;11.82;100.00;100029.91;5015057;28;20227;-46
2024/04/05 04:52:46;;;;;;;0.30;0.20;;;;;;;11.89;100.00;100027.00;5014988;28;20667;-46
2024/04/05 04:55:12;;;;;;;0.30;0.20;;;;;;;12.03;100.00;100022.00;5014718;28;20272;-46
2024/04/05 04:57:37;;;;;;;0.30;0.20;;;;;;;11.94;100.00;100004.59;5014906;28;20221;-46
2024/04/05 05:00:04;;;;;;;0.30;0.20;;;;;;;12.02;100.00;100015.81;4966311;28;20211;-46
2024/04/05 05:02:30;;;;;;;0.30;0.20;;;;;;;12.07;100.00;100002.31;4995085;28;20241;-47
2024/04/05 05:04:55;;;;;;;0.30;0.20;;;;;;;12.09;100.00;100011.13;5011235;28;21061;-46
2024/04/05 05:07:21;;;;;;;0.30;0.20;;;;;;;12.10;100.00;100007.53;5014420;28;20218;-46
2024/04/05 05:09:46;;;;;;;0.30;0.20;;;;;;;12.11;100.00;100004.81;5013940;28;20253;-46
2024/04/05 05:12:12;;;;;;;0.30;0.20;;;;;;;12.06;100.00;100013.88;5014197;28;20252;-46
2024/04/05 05:14:38;;;;;;;0.30;0.20;;;;;;;12.05;100.00;100009.47;4997794;28;20213;-46
2024/04/05 05:17:05;;;;;;;2.73;2.53;;;;;;;12.01;100.00;100003.41;5014070;28;20275;-46
2024/04/05 05:19:31;;;;;;;0.30;0.20;;;;;;;11.98;100.00;100014.19;4997711;28;20240;-46
2024/04/05 05:21:57;;;;;;;0.30;0.30;;;;;;;11.96;100.00;100005.41;5013851;28;20459;-46
2024/04/05 05:24:23;;;;;;;1.13;1.13;;;;;;;11.99;100.00;100005.28;5013500;28;20500;-46
2024/04/05 05:26:49;;;;;;;0.30;0.20;;;;;;;11.95;100.00;100001.00;5013905;28;20221;-46
2024/04/05 05:29:14;;;;;;;0.30;0.20;;;;;;;11.89;100.00;99993.25;5013910;28;20951;-46
2024/04/05 05:31:40;;;;;;;0.30;0.20;;;;;;;11.80;100.00;100001.59;5013800;28;20240;-46
2024/04/05 05:34:06;;;;;;;0.30;0.20;;;;;;;11.68;100.00;99999.38;4999463;28;20577;-46
2024/04/05 05:36:31;;;;;;;0.30;0.20;;;;;;;11.70;100.00;100006.38;4993214;28;20727;-46
2024/04/05 05:38:57;;;;;;;0.30;0.20;;;;;;;11.77;100.00;99996.34;4998979;28;20496;-45
2024/04/05 05:41:22;;;;;;;0.30;0.20;;;;;;;11.78;100.00;99998.94;5004557;28;20726;-46
2024/04/05 05:43:48;;;;;;;0.30;0.20;;;;;;;11.76;100.00;100006.13;5013003;28;20761;-46
2024/04/05 05:46:14;;;;;;;0.30;0.20;;;;;;;12.00;100.00;100008.81;5013814;28;20214;-46
2024/04/05 05:48:39;;;;;;;0.30;0.20;;;;;;;11.91;100.00;100015.34;5013458;28;20225;-46
2024/04/05 05:51:05;;;;;;;0.30;0.20;;;;;;;12.02;100.00;100029.13;5013912;28;20307;-46
2024/04/05 05:53:30;;;;;;;0.30;0.20;;;;;;;12.05;100.00;100023.66;5013727;28;20279;-46
2024/04/05 05:55:56;;;;;;;0.30;0.20;;;;;;;12.11;100.00;100023.44;5013746;28;20848;-46
2024/04/05 05:58:22;;;;;;;0.30;0.20;;;;;;;12.24;100.00;100010.50;5013586;28;20213;-47
2024/04/05 06:00:47;;;;;;;0.30;0.20;;;;;;;12.43;100.00;100016.81;4995252;28;20215;-47
2024/04/05 06:03:13;;;;;;;0.30;0.20;;;;;;;12.28;100.00;100014.78;5006782;28;20241;-46
2024/04/05 06:05:38;;;;;;;0.30;0.20;;;;;;;12.34;100.00;100011.88;5013621;28;20222;-46
2024/04/05 06:08:06;;;;;;;0.30;0.20;;;;;;;12.44;100.00;100010.56;5013495;28;20222;-46
2024/04/05 06:10:31;;;;;;;0.30;0.20;;;;;;;12.52;100.00;100018.25;5013315;28;20213;-46
2024/04/05 06:12:57;;;;;;;0.30;0.20;;;;;;;12.68;100.00;100031.81;5013272;28;20505;-46
2024/04/05 06:15:23;;;;;;;0.30;0.20;;;;;;;12.84;100.00;100032.91;5013150;28;20225;-46
2024/04/05 06:17:49;;;;;;;0.30;0.20;;;;;;;13.25;100.00;100041.84;4990612;28;21103;-46
2024/04/05 06:20:17;;;;;;;0.30;0.20;;;;;;;13.50;100.00;100038.13;5000098;28;20214;-46
2024/04/05 06:22:43;;;;;;;0.30;0.20;;;;;;;13.64;100.00;100033.88;5000563;28;20233;-46
2024/04/05 06:25:09;;;;;;;0.30;0.30;;;;;;;13.81;100.00;100024.22;4998460;28;20467;-46
2024/04/05 06:27:37;;;;;;;0.30;0.20;;;;;;;13.85;100.00;100023.16;5010981;28;20213;-47
2024/04/05 06:30:03;;;;;;;0.30;0.20;;;;;;;14.01;100.00;100012.63;5013133;28;20236;-46
2024/04/05 06:32:30;;;;;;;0.30;0.20;;;;;;;14.13;100.00;100004.03;5012420;28;20481;-47
2024/04/05 06:34:56;;;;;;;0.30;0.20;;;;;;;14.32;100.00;99996.84;5004604;28;20439;-46
2024/04/05 06:37:21;;;;;;;0.30;0.20;;;;;;;14.43;100.00;99991.84;5012643;28;20468;-46
2024/04/05 06:39:51;;;;;;;0.30;0.20;;;;;;;14.43;100.00;99983.81;4994060;28;21053;-46
2024/04/05 06:42:17;;;;;;;0.30;0.20;;;;;;;14.50;100.00;99979.06;5011441;28;20245;-46
2024/04/05 06:44:42;;;;;;;0.30;0.20;;;;;;;14.58;100.00;99981.38;4996051;28;20507;-46
2024/04/05 06:47:09;;;;;;;0.30;0.20;;;;;;;14.61;100.00;99966.00;5012581;28;20355;-46
2024/04/05 06:49:37;;;;;;;0.30;0.20;;;;;;;14.85;100.00;99968.41;5012457;28;20682;-46
2024/04/05 06:52:05;;;;;;;0.30;0.20;;;;;;;14.93;100.00;99972.38;5012564;28;20463;-46
2024/04/05 06:54:32;;;;;;;0.30;0.20;;;;;;;14.99;100.00;99977.44;5011684;28;20917;-46
2024/04/05 06:56:58;;;;;;;0.30;0.20;;;;;;;15.17;100.00;99972.06;5012666;28;20539;-46
2024/04/05 06:59:23;;;;;;;0.30;0.20;;;;;;;15.14;100.00;99965.06;5005553;28;20473;-46
2024/04/05 07:01:53;;;;;;;0.30;0.20;;;;;;;15.25;100.00;99957.34;4998238;28;20234;-46
2024/04/05 07:04:23;;;;;;;0.30;0.20;;;;;;;15.36;100.00;99957.63;4993020;28;20241;-46
2024/04/05 07:06:49;;;;;;;0.30;0.20;;;;;;;15.46;100.00;99960.66;4995775;28;20476;-46
2024/04/05 07:09:15;;;;;;;0.30;0.20;;;;;;;15.84;100.00;99971.16;5012251;28;20929;-46
2024/04/05 07:11:40;;;;;;;0.30;0.20;;;;;;;15.90;100.00;99968.16;5012401;28;20563;-47
2024/04/05 07:14:07;;;;;;;0.30;0.20;;;;;;;16.07;100.00;99962.69;5012672;28;20221;-47
2024/04/05 07:16:32;;;;;;;0.30;0.20;;;;;;;15.97;100.00;99958.78;5012331;28;20217;-46
2024/04/05 07:18:57;;;;;;;0.30;0.20;;;;;;;15.91;100.00;99967.19;5012323;28;20460;-47
2024/04/05 07:21:24;;;;;;;0.40;0.20;;;;;;;15.85;100.00;99952.28;5012254;28;20641;-46
2024/04/05 07:23:51;;;;;;;0.30;0.20;;;;;;;15.97;100.00;99951.63;4995995;28;20241;-46
2024/04/05 07:26:17;;;;;;;0.30;0.20;;;;;;;16.24;100.00;99954.53;4994088;28;20858;-46
2024/04/05 07:28:43;;;;;;;0.30;0.20;;;;;;;16.13;100.00;99956.09;5003215;28;20435;-46
2024/04/05 07:31:09;;;;;;;0.30;0.20;;;;;;;16.56;100.00;99963.41;5012215;28;20519;-48
2024/04/05 07:33:34;;;;;;;0.30;0.20;;;;;;;16.40;100.00;99972.44;5003213;28;20230;-47
2024/04/05 07:36:00;;;;;;;0.40;0.30;;;;;;;16.37;100.00;99961.91;5011519;28;20457;-46
2024/04/05 07:38:25;;;;;;;0.30;0.20;;;;;;;16.67;100.00;99972.66;5004944;28;20676;-46
2024/04/05 07:40:51;;;;;;;0.30;0.20;;;;;;;16.51;100.00;99972.69;4998440;28;20224;-46
2024/04/05 07:43:16;;;;;;;0.30;0.20;;;;;;;16.50;100.00;99960.22;5012506;28;20245;-46
2024/04/05 07:45:42;;;;;;;0.30;0.20;;;;;;;16.58;100.00;99953.47;5012760;28;20918;-46
2024/04/05 07:48:08;;;;;;;0.30;0.20;;;;;;;16.56;100.00;99947.31;5012783;28;20220;-47
2024/04/05 07:50:33;;;;;;;0.30;0.20;;;;;;;16.50;100.00;99946.81;5013451;28;20332;-47
2024/04/05 07:53:00;;;;;;;0.30;0.20;;;;;;;16.61;100.00;99949.75;5013585;28;20241;-47
2024/04/05 07:55:25;;;;;;;0.30;0.20;;;;;;;16.68;100.00;99948.44;5014680;28;20221;-47
2024/04/05 07:57:51;;;;;;;0.30;0.20;;;;;;;16.66;100.00;99950.31;5016093;28;20522;-47
2024/04/05 08:00:20;;;;;;;0.30;0.20;;;;;;;16.74;100.00;99952.59;5001707;28;20631;-47
2024/04/05 08:02:52;;;;;;;0.30;0.20;;;;;;;17.02;100.00;99951.81;4989427;28;20248;-47
2024/04/05 08:05:19;;;;;;;0.30;0.20;;;;;;;17.41;100.00;99949.38;5015749;28;20492;-47
2024/04/05 08:07:44;;;;;;;0.30;0.20;;;;;;;17.32;100.00;99941.00;5019851;28;20511;-47
2024/04/05 08:10:10;;;;;;;0.30;0.20;;;;;;;17.37;98.14;99946.94;5020239;28;20555;-46
2024/04/05 08:12:36;;;;;;;0.30;0.20;;;;;;;17.42;98.47;99936.78;5020438;28;20238;-47
2024/04/05 08:15:03;;;;;;;0.30;0.20;;;;;;;17.60;98.41;99937.44;5020720;28;20237;-46
2024/04/05 08:17:29;;;;;;;0.30;0.20;;;;;;;17.76;96.98;99919.41;5002681;28;20503;-48
2024/04/05 08:19:54;;;;;;;0.30;0.20;;;;;;;17.86;96.13;99914.31;5016823;28;20460;-47
2024/04/05 08:22:20;;;;;;;0.30;0.20;;;;;;;17.98;95.59;99910.81;5015825;28;20488;-46
2024/04/05 08:24:45;;;;;;;0.30;0.20;;;;;;;18.22;94.89;99914.56;5015489;28;20233;-47
2024/04/05 08:27:11;;;;;;;0.30;0.20;;;;;;;18.30;94.08;99889.88;5015655;28;20297;-47
2024/04/05 08:29:38;;;;;;;0.30;0.20;;;;;;;18.58;92.37;99889.72;5015856;28;20229;-47
2024/04/05 08:32:06;;;;;;;0.30;0.20;;;;;;;18.46;92.79;99893.25;4999013;28;20489;-47
2024/04/05 08:34:32;;;;;;;0.30;0.20;;;;;;;18.62;91.77;99895.75;5005724;28;20460;-47
2024/04/05 08:36:58;;;;;;;0.30;0.20;;;;;;;18.49;92.18;99909.19;5014871;28;20456;-47
2024/04/05 08:39:24;;;;;;;0.40;0.20;;;;;;;18.40;91.66;99909.81;4999455;28;20222;-46
2024/04/05 08:41:50;;;;;;;0.30;0.20;;;;;;;18.49;92.08;99901.09;5009755;28;20471;-46
2024/04/05 08:44:17;;;;;;;0.30;0.20;;;;;;;18.76;91.96;99914.56;5014569;28;20660;-47
2024/04/05 08:46:43;;;;;;;0.40;0.20;;;;;;;18.57;93.57;99908.69;4998230;28;20467;-47
2024/04/05 08:49:13;;;;;;;0.40;0.20;;;;;;;18.69;92.20;99901.63;4998437;28;20480;-47
2024/04/05 08:51:40;;;;;;;0.40;0.20;;;;;;;18.62;92.63;99907.38;5014596;28;20477;-47
2024/04/05 08:54:07;;;;;;;0.40;0.20;;;;;;;18.63;91.70;99908.25;5014718;28;20457;-46
2024/04/05 08:56:34;;;;;;;0.40;0.20;;;;;;;18.87;91.09;99900.34;4998342;28;20973;-47
2024/04/05 08:59:03;;;;;;;0.40;0.20;;;;;;;18.91;90.84;99910.84;5011258;28;20470;-47
2024/04/05 09:01:29;;;;;;;0.40;0.20;;;;;;;18.94;90.37;99910.63;4996404;28;20477;-47
2024/04/05 09:03:55;;;;;;;0.40;0.20;;;;;;;19.16;88.56;99901.88;5010923;28;20488;-47
2024/04/05 09:06:21;;;;;;;0.40;0.20;;;;;;;19.13;88.05;99899.41;4997791;28;20464;-47
2024/04/05 09:08:50;;;;;;;0.40;0.20;;;;;;;19.23;88.68;99903.19;5014286;28;20226;-46
2024/04/05 09:11:19;;;;;;;0.40;0.20;;;;;;;18.93;88.21;99897.25;5014128;28;20249;-46
2024/04/05 09:14:04;;;;;;;0.40;0.20;;;;;;;19.29;88.55;99901.00;5014387;28;20461;-47
2024/04/05 09:16:31;;;;;;;0.40;0.20;;;;;;;19.70;86.29;99890.84;5013603;28;20523;-48
2024/04/05 09:19:06;;;;;;;0.40;0.20;;;;;;;19.40;87.32;99901.97;5013813;28;20913;-46
2024/04/05 09:21:31;;;;;;;0.40;0.20;;;;;;;19.63;87.49;99897.69;5014101;28;20507;-47
2024/04/05 09:23:57;;;;;;;0.40;0.20;;;;;;;19.61;88.06;99896.94;4997457;28;21088;-47
2024/04/05 09:26:24;;;;;;;0.40;0.20;;;;;;;19.69;86.74;99899.91;5013816;28;20225;-47
2024/04/05 09:29:04;;;;;;;0.40;0.20;;;;;;;19.33;87.60;99889.06;5013870;28;20221;-47
2024/04/05 09:31:30;;;;;;;0.40;0.20;;;;;;;19.87;85.86;99891.44;5013827;28;20466;-48
2024/04/05 09:34:18;;;;;;;0.40;0.20;;;;;;;19.74;85.39;99888.81;5003307;28;20450;-47
2024/04/05 09:36:44;;;;;;;0.40;0.20;;;;;;;19.62;87.01;99871.69;5013809;28;20471;-47
2024/04/05 09:39:13;;;;;;;0.40;0.20;;;;;;;19.45;87.44;99870.16;5000236;28;20465;-47
2024/04/05 09:41:40;;;;;;;0.40;0.20;;;;;;;19.85;86.40;99869.13;5005318;28;20244;-47
2024/04/05 09:44:07;;;;;;;0.40;0.20;;;;;;;19.62;87.09;99841.16;5013379;28;20551;-46
2024/04/05 09:46:34;;;;;;;0.40;0.20;;;;;;;19.93;86.07;99850.53;4997317;28;20456;-47
2024/04/05 09:49:03;;;;;;;0.40;0.20;;;;;;;19.97;85.91;99854.72;5014206;28;20477;-47
2024/04/05 09:51:45;;;;;;;0.40;0.20;;;;;;;19.52;85.72;99855.28;5013764;28;20488;-46
2024/04/05 09:54:12;;;;;;;0.40;0.20;;;;;;;19.90;85.07;99840.00;5013613;28;20468;-47
2024/04/05 09:56:39;;;;;;;0.40;0.20;;;;;;;19.89;84.28;99835.56;5013263;28;20528;-47
2024/04/05 09:59:17;;;;;;;0.40;0.20;;;;;;;19.80;84.78;99835.25;5008923;28;20468;-47
2024/04/05 10:01:46;;;;;;;0.40;0.20;;;;;;;19.95;83.98;99825.16;4997498;28;20858;-47
2024/04/05 10:04:13;;;;;;;0.40;0.20;;;;;;;20.66;82.29;99826.06;5009806;28;20488;-47
2024/04/05 10:06:40;;;;;;;0.40;0.20;;;;;;;20.93;81.18;99828.47;5013254;28;20460;-47
2024/04/05 10:09:16;;;;;;;0.40;0.20;;;;;;;21.18;76.08;99828.25;5013370;28;20460;-47
2024/04/05 10:11:43;;;;;;;0.40;0.20;;;;;;;21.44;75.48;99818.06;5013097;28;20547;-47
2024/04/05 10:14:08;;;;;;;0.40;0.20;;;;;;;21.91;75.67;99820.53;5013046;28;20803;-47
2024/04/05 10:16:34;;;;;;;0.50;0.47;;;;;;;21.84;71.99;99826.47;5013000;28;20531;-47
2024/04/05 10:19:11;;;;;;;0.40;0.20;;;;;;;22.61;71.47;99839.00;5013194;28;20244;-47
2024/04/05 10:21:37;;;;;;;0.40;0.20;;;;;;;22.59;59.97;99840.97;5013134;28;20249;-47
2024/04/05 10:24:05;;;;;;;0.40;0.20;;;;;;;22.09;58.66;99840.72;5012538;28;20493;-48
2024/04/05 10:26:33;;;;;;;0.40;0.20;;;;;;;22.29;58.01;99844.44;5013016;28;20217;-47
2024/04/05 10:29:05;;;;;;;0.40;0.20;;;;;;;21.94;60.06;99848.25;5011857;28;20472;-47
2024/04/05 10:31:36;;;;;;;0.40;0.20;;;;;;;22.19;58.75;99844.34;5012719;28;20889;-48
2024/04/05 10:34:03;;;;;;;0.40;0.20;;;;;;;22.31;57.07;99839.75;4986221;28;20436;-47
2024/04/05 10:36:32;;;;;;;0.40;0.20;;;;;;;21.87;58.21;99845.16;5012762;28;20492;-47
2024/04/05 10:38:59;;;;;;;0.40;0.20;;;;;;;21.80;57.89;99832.28;5000579;28;20469;-48
2024/04/05 10:41:25;;;;;;;0.40;0.20;;;;;;;21.72;58.53;99819.38;5003139;28;20568;-47
2024/04/05 10:44:06;;;;;;;0.40;0.20;;;;;;;21.71;58.20;99798.72;5012322;28;20492;-47
2024/04/05 10:46:32;;;;;;;0.40;0.20;;;;;;;21.82;57.93;99795.97;5013236;28;20220;-49
2024/04/05 10:48:58;;;;;;;0.40;0.20;;;;;;;21.80;57.27;99789.84;5012246;28;20464;-46
2024/04/05 10:51:25;;;;;;;0.40;0.20;;;;;;;21.85;58.59;99789.44;5012700;28;20237;-47
2024/04/05 10:53:50;;;;;;;0.40;0.20;;;;;;;22.03;56.77;99792.44;5012179;28;20973;-48
2024/04/05 10:56:17;;;;;;;0.40;0.20;;;;;;;22.13;57.69;99796.16;5012788;28;20457;-47
2024/04/05 10:58:43;;;;;;;0.40;0.20;;;;;;;22.41;57.70;99792.81;5010423;28;20597;-49
2024/04/05 11:01:09;;;;;;;0.40;0.20;;;;;;;22.38;56.60;99797.63;4993716;28;20462;-48
2024/04/05 11:03:35;;;;;;;0.40;0.20;;;;;;;22.50;56.87;99818.25;5007771;28;20527;-48
2024/04/05 11:06:04;;;;;;;0.40;0.20;;;;;;;22.20;55.88;99807.31;5012894;28;20225;-47
2024/04/05 11:08:31;;;;;;;0.40;0.20;;;;;;;22.06;55.50;99801.19;5012180;28;20228;-48
2024/04/05 11:10:57;;;;;;;0.40;0.20;;;;;;;21.86;55.92;99791.16;5012073;28;20456;-48
2024/04/05 11:13:26;;;;;;;0.40;0.20;;;;;;;21.75;56.30;99772.25;5011985;28;20538;-47
2024/04/05 11:16:04;;;;;;;0.40;0.20;;;;;;;22.06;55.64;99768.72;5011812;28;20447;-48
2024/04/05 11:18:37;;;;;;;0.40;0.20;;;;;;;22.26;56.66;99750.78;5011976;28;20519;-47
2024/04/05 11:21:04;;;;;;;0.40;0.20;;;;;;;21.94;57.33;99756.22;5011839;28;20468;-48